Time;durP1;ratioP1;P1;durP2;ratioP2;P2;SDS_P1;SDS_P2;PMS_P1;PMS_P2;Temp;Humidity;BMP_temperature;BMP_pressure;BME280_temperature;BME280_humidity;BME280_pressure;Samples;Min_cycle;Max_cycle;Signal;HPM_P1;HPM_P2
2023/07/19 00:02:07;;;;;;;6.88;2.88;;;18.90;99.90;;;18.36;100.00;97490.13;4953736;28;20322;-78
2023/07/19 00:04:34;;;;;;;9.32;3.58;;;18.90;99.90;;;18.31;100.00;97494.84;4958943;28;20190;-77
2023/07/19 00:07:03;;;;;;;5.95;2.38;;;18.90;99.90;;;18.37;100.00;97495.22;4956491;28;20082;-77
2023/07/19 00:09:30;;;;;;;8.85;3.40;;;19.00;99.90;;;18.36;100.00;97488.31;4937658;28;20139;-77
2023/07/19 00:11:57;;;;;;;6.95;2.55;;;19.00;99.90;;;18.48;100.00;97488.34;4943945;28;20074;-77
2023/07/19 00:14:24;;;;;;;6.22;2.80;;;19.10;99.90;;;18.44;100.00;97486.91;4967243;28;20051;-77
2023/07/19 00:16:51;;;;;;;7.65;2.92;;;19.10;99.90;;;18.24;100.00;97493.66;4941202;28;20594;-77
2023/07/19 00:19:18;;;;;;;9.48;3.33;;;19.10;99.90;;;18.20;100.00;97498.31;4957521;28;20051;-78
2023/07/19 00:21:47;;;;;;;6.13;2.85;;;19.00;99.90;;;18.26;100.00;97499.63;4954630;28;20500;-77
2023/07/19 00:24:18;;;;;;;7.60;2.55;;;19.00;99.90;;;18.26;100.00;97489.94;4953178;28;20574;-77
2023/07/19 00:26:45;;;;;;;7.30;3.20;;;18.90;99.90;;;18.28;100.00;97490.66;4952465;28;20472;-77
2023/07/19 00:29:13;;;;;;;5.82;3.05;;;18.90;99.90;;;18.16;100.00;97486.34;4954858;28;20962;-77
2023/07/19 00:31:41;;;;;;;11.88;3.30;;;18.80;99.90;;;18.15;100.00;97493.41;4951555;28;20079;-77
2023/07/19 00:34:09;;;;;;;6.70;2.90;;;18.80;99.90;;;18.03;100.00;97491.66;4953787;28;20480;-78
2023/07/19 00:36:36;;;;;;;8.43;3.45;;;18.80;99.90;;;18.13;100.00;97492.69;4949694;28;20062;-77
2023/07/19 00:39:04;;;;;;;7.82;2.63;;;18.70;99.90;;;18.09;100.00;97493.03;4969898;28;20065;-77
2023/07/19 00:41:31;;;;;;;5.97;2.90;;;18.70;99.90;;;18.07;100.00;97497.53;4946783;28;20119;-77
2023/07/19 00:43:59;;;;;;;13.98;3.47;;;18.60;99.90;;;17.78;100.00;97505.72;4953787;28;20055;-76
2023/07/19 00:46:27;;;;;;;9.05;3.50;;;18.60;99.90;;;17.84;100.00;97501.88;4948836;28;20055;-77
2023/07/19 00:48:56;;;;;;;6.55;2.97;;;18.70;99.90;;;18.01;100.00;97501.44;4953124;28;20083;-77
2023/07/19 00:51:23;;;;;;;7.05;3.00;;;18.70;99.90;;;18.05;100.00;97500.28;4939044;28;20132;-77
2023/07/19 00:53:52;;;;;;;7.70;3.42;;;18.80;99.90;;;17.99;100.00;97500.72;4953312;28;20059;-77
2023/07/19 00:56:20;;;;;;;8.15;3.30;;;18.90;99.90;;;18.14;100.00;97499.59;4947434;28;20051;-77
2023/07/19 00:58:50;;;;;;;11.10;3.90;;;18.90;99.90;;;17.98;100.00;97504.31;4950702;28;20047;-77
2023/07/19 01:01:19;;;;;;;8.20;3.47;;;18.90;99.90;;;18.00;100.00;97506.84;4932818;28;20075;-77
2023/07/19 01:03:47;;;;;;;8.57;3.40;;;18.90;99.90;;;17.90;100.00;97506.66;4940888;28;20088;-77
2023/07/19 01:06:14;;;;;;;7.57;3.05;;;18.90;99.90;;;18.03;100.00;97506.59;4957690;28;20055;-77
2023/07/19 01:08:41;;;;;;;10.25;2.80;;;18.90;99.90;;;18.02;100.00;97507.53;4948726;28;20142;-77
2023/07/19 01:11:09;;;;;;;10.43;3.45;;;18.90;99.90;;;18.04;100.00;97509.13;4951263;28;20055;-77
2023/07/19 01:13:36;;;;;;;8.60;3.30;;;18.90;99.90;;;18.10;100.00;97510.44;4951396;28;20047;-76
2023/07/19 01:16:03;;;;;;;7.95;3.53;;;18.90;99.90;;;17.99;100.00;97503.34;4950033;28;20447;-76
2023/07/19 01:18:31;;;;;;;10.13;3.50;;;18.90;99.90;;;17.91;100.00;97503.91;4948680;28;20066;-77
2023/07/19 01:20:58;;;;;;;7.60;3.55;;;18.90;99.90;;;17.93;100.00;97501.19;4946912;28;20051;-76
2023/07/19 01:23:40;;;;;;;8.77;3.45;;;18.90;99.90;;;17.72;100.00;97514.03;4943412;28;20059;-77
2023/07/19 01:26:07;;;;;;;8.10;3.40;;;18.80;99.90;;;17.60;100.00;97509.69;4958687;28;20512;-77
2023/07/19 01:28:34;;;;;;;6.97;3.42;;;18.60;99.90;;;17.47;100.00;97521.09;4949657;28;20051;-76
2023/07/19 01:31:05;;;;;;;14.43;4.22;;;18.50;99.90;;;17.37;100.00;97521.84;4948851;28;20051;-76
2023/07/19 01:33:35;;;;;;;7.72;3.75;;;18.50;99.90;;;17.13;100.00;97533.97;4941413;28;20540;-77
2023/07/19 01:36:04;;;;;;;7.80;3.25;;;18.40;99.90;;;17.07;100.00;97544.03;4950777;28;20050;-77
2023/07/19 01:38:32;;;;;;;14.05;3.63;;;18.20;99.90;;;17.06;100.00;97544.97;4948307;28;20141;-77
2023/07/19 01:40:59;;;;;;;6.65;3.53;;;18.10;99.90;;;17.11;100.00;97554.22;4951602;28;20431;-77
2023/07/19 01:43:26;;;;;;;11.68;3.90;;;18.10;99.90;;;17.19;100.00;97556.28;4950642;28;20106;-77
2023/07/19 01:45:54;;;;;;;8.60;3.40;;;18.20;99.90;;;17.24;100.00;97551.56;4951634;28;20062;-77
2023/07/19 01:48:21;;;;;;;8.68;3.83;;;18.20;99.90;;;17.34;100.00;97549.97;4950005;28;20051;-76
2023/07/19 01:50:48;;;;;;;10.68;4.68;;;18.20;99.90;;;17.26;100.00;97547.03;4932686;28;20121;-77
2023/07/19 01:53:15;;;;;;;6.07;3.25;;;18.20;99.90;;;17.35;100.00;97537.69;4950552;28;20047;-77
2023/07/19 01:55:42;;;;;;;8.15;4.10;;;18.20;99.90;;;17.27;100.00;97545.28;4949825;28;20591;-76
2023/07/19 01:58:10;;;;;;;12.30;4.53;;;18.20;99.90;;;17.27;100.00;97540.84;4948606;28;20061;-77
2023/07/19 02:00:37;;;;;;;9.23;4.70;;;18.20;99.90;;;17.26;100.00;97544.41;4947080;28;20742;-77
2023/07/19 02:03:05;;;;;;;9.82;4.47;;;18.20;99.90;;;17.28;100.00;97547.75;4952749;28;20579;-77
2023/07/19 02:05:34;;;;;;;9.00;4.65;;;18.20;99.90;;;17.18;100.00;97532.81;4946458;28;20047;-77
2023/07/19 02:08:03;;;;;;;11.50;3.90;;;18.10;99.90;;;17.12;100.00;97542.75;4946412;28;20110;-77
2023/07/19 02:10:30;;;;;;;10.32;3.83;;;17.90;99.90;;;17.06;100.00;97550.22;4947821;28;20055;-76
2023/07/19 02:12:57;;;;;;;11.43;3.72;;;17.70;99.90;;;16.94;100.00;97557.16;4948952;28;20130;-77
2023/07/19 02:15:25;;;;;;;11.20;3.65;;;17.50;99.90;;;16.79;100.00;97556.44;4950796;28;20051;-76
2023/07/19 02:17:54;;;;;;;11.13;4.47;;;17.60;99.90;;;16.60;100.00;97564.63;4948161;28;20153;-77
2023/07/19 02:20:21;;;;;;;6.90;3.42;;;17.50;99.90;;;16.76;100.00;97563.63;4961479;28;20066;-77
2023/07/19 02:22:48;;;;;;;6.57;3.55;;;17.60;99.90;;;16.66;100.00;97563.41;4947462;28;20134;-77
2023/07/19 02:25:16;;;;;;;9.27;3.75;;;17.50;99.90;;;16.75;100.00;97564.56;4950513;28;20139;-77
2023/07/19 02:27:43;;;;;;;10.60;4.38;;;17.50;99.90;;;16.79;100.00;97581.78;4945368;28;20075;-77
2023/07/19 02:30:11;;;;;;;10.55;4.53;;;17.60;99.90;;;16.98;100.00;97584.00;4946484;28;20051;-77
2023/07/19 02:32:39;;;;;;;9.02;4.03;;;17.70;99.90;;;17.03;100.00;97577.47;4955288;28;20050;-75
2023/07/19 02:35:06;;;;;;;13.25;4.57;;;17.80;99.90;;;17.12;100.00;97576.84;4951188;28;20439;-76
2023/07/19 02:37:33;;;;;;;6.15;3.33;;;17.90;99.90;;;17.16;100.00;97568.78;4952606;28;20083;-76
2023/07/19 02:40:00;;;;;;;7.10;3.25;;;17.90;99.90;;;16.99;100.00;97568.19;4932707;28;20056;-76
2023/07/19 02:42:27;;;;;;;7.32;3.40;;;17.90;99.90;;;16.89;100.00;97569.72;4952481;28;20122;-77
2023/07/19 02:44:55;;;;;;;6.63;3.60;;;17.90;99.90;;;17.00;100.00;97580.34;4951531;28;20083;-77
2023/07/19 02:47:22;;;;;;;8.75;3.88;;;17.90;99.90;;;16.98;100.00;97584.00;4949441;28;20055;-77
2023/07/19 02:49:51;;;;;;;7.30;3.85;;;17.90;99.90;;;17.00;100.00;97582.94;4947174;28;20043;-77
2023/07/19 02:52:18;;;;;;;11.40;4.57;;;17.90;99.90;;;17.04;100.00;97587.03;4943657;28;20047;-77
2023/07/19 02:54:45;;;;;;;8.90;4.30;;;17.90;99.90;;;16.98;100.00;97597.94;4949027;28;20082;-77
2023/07/19 02:57:12;;;;;;;13.05;4.38;;;17.90;99.90;;;17.00;100.00;97605.72;4951412;28;20061;-77
2023/07/19 02:59:39;;;;;;;10.50;4.22;;;17.90;99.90;;;17.08;100.00;97612.13;4946657;28;20150;-77
2023/07/19 03:02:07;;;;;;;9.90;4.32;;;17.90;99.90;;;17.14;100.00;97601.19;4949383;28;20524;-76
2023/07/19 03:04:34;;;;;;;8.55;4.40;;;17.90;99.90;;;17.01;100.00;97610.84;4946767;28;20043;-76
2023/07/19 03:07:04;;;;;;;10.00;4.38;;;17.90;99.90;;;17.04;100.00;97615.91;4931263;28;20578;-75
2023/07/19 03:09:31;;;;;;;7.75;4.28;;;17.90;99.90;;;17.11;100.00;97611.91;4948580;28;20047;-77
2023/07/19 03:11:58;;;;;;;8.93;4.40;;;17.90;99.90;;;16.99;100.00;97619.75;4947869;28;20134;-77
2023/07/19 03:14:25;;;;;;;9.60;4.82;;;17.90;99.90;;;16.81;100.00;97627.94;4949131;28;20122;-76
2023/07/19 03:16:52;;;;;;;10.07;3.92;;;17.80;99.90;;;16.98;100.00;97644.31;4949279;28;20047;-76
2023/07/19 03:19:19;;;;;;;8.10;3.92;;;17.70;99.90;;;17.06;100.00;97632.38;4942737;28;20134;-77
2023/07/19 03:21:47;;;;;;;8.52;3.65;;;17.80;99.90;;;17.09;100.00;97626.91;4949635;28;20043;-76
2023/07/19 03:24:16;;;;;;;12.75;3.83;;;17.80;99.90;;;17.05;100.00;97625.44;4950978;28;20047;-77
2023/07/19 03:26:43;;;;;;;12.20;4.97;;;17.90;99.90;;;16.92;100.00;97635.94;4950053;28;20106;-76
2023/07/19 03:29:10;;;;;;;8.77;3.90;;;17.80;99.90;;;16.96;100.00;97644.41;4948735;28;20646;-77
2023/07/19 03:31:37;;;;;;;10.82;4.53;;;17.80;99.90;;;16.99;100.00;97648.59;4960753;28;20111;-74
2023/07/19 03:34:04;;;;;;;7.50;3.83;;;17.80;99.90;;;16.98;100.00;97650.38;4960228;28;20048;-76
2023/07/19 03:36:31;;;;;;;13.07;5.32;;;17.80;99.90;;;16.82;100.00;97655.81;4945448;28;20615;-75
2023/07/19 03:38:59;;;;;;;8.65;4.38;;;17.70;99.90;;;16.87;100.00;97648.47;4948059;28;20059;-76
2023/07/19 03:41:26;;;;;;;10.52;4.40;;;17.80;99.90;;;16.84;100.00;97648.69;4948561;28;20051;-76
2023/07/19 03:43:53;;;;;;;9.02;3.92;;;17.70;99.90;;;16.86;100.00;97653.84;4948475;28;20059;-77
2023/07/19 03:46:20;;;;;;;10.50;4.07;;;17.70;99.90;;;16.85;100.00;97657.38;4931865;28;20051;-77
2023/07/19 03:48:49;;;;;;;9.95;4.10;;;17.70;99.90;;;16.76;100.00;97656.19;4948289;28;20075;-77
2023/07/19 03:51:16;;;;;;;7.97;4.50;;;17.70;99.90;;;16.64;100.00;97668.31;4950873;28;20063;-76
2023/07/19 03:53:43;;;;;;;13.57;4.72;;;17.50;99.90;;;16.77;100.00;97675.41;4949662;28;20047;-76
2023/07/19 03:56:11;;;;;;;14.13;3.90;;;17.50;99.90;;;16.86;100.00;97669.56;4945475;28;20142;-76
2023/07/19 03:58:39;;;;;;;8.60;3.85;;;17.50;99.90;;;16.87;100.00;97666.84;4947465;28;20074;-77
2023/07/19 04:01:06;;;;;;;10.13;3.90;;;17.50;99.90;;;16.66;100.00;97663.81;4958781;28;20596;-75
2023/07/19 04:03:33;;;;;;;11.23;5.05;;;17.50;99.90;;;16.62;100.00;97657.09;4945188;28;20081;-76
2023/07/19 04:06:01;;;;;;;8.73;4.90;;;17.40;99.90;;;16.51;100.00;97673.56;4947575;28;20077;-77
2023/07/19 04:08:28;;;;;;;8.52;3.95;;;17.40;99.90;;;16.72;100.00;97673.91;4944081;28;20140;-77
2023/07/19 04:10:55;;;;;;;7.03;3.90;;;17.50;99.90;;;16.78;100.00;97683.13;4966969;28;20055;-77
2023/07/19 04:13:22;;;;;;;10.75;4.88;;;17.50;99.90;;;16.76;100.00;97679.78;4932207;29;20070;-76
2023/07/19 04:15:49;;;;;;;7.13;4.40;;;17.60;99.90;;;16.83;100.00;97675.00;4947304;28;20047;-77
2023/07/19 04:18:16;;;;;;;11.65;4.35;;;17.60;99.90;;;16.78;100.00;97677.06;4962886;28;20047;-77
2023/07/19 04:20:43;;;;;;;14.48;4.82;;;17.60;99.90;;;16.64;100.00;97673.56;4950286;28;20130;-77
2023/07/19 04:23:10;;;;;;;10.93;4.78;;;17.60;99.90;;;16.71;100.00;97692.34;4950384;28;20175;-77
2023/07/19 04:25:37;;;;;;;9.55;4.75;;;17.60;99.90;;;16.86;100.00;97694.00;4953552;28;20138;-76
2023/07/19 04:28:04;;;;;;;10.68;5.38;;;17.60;99.90;;;16.67;100.00;97694.34;4951374;28;20051;-77
2023/07/19 04:30:31;;;;;;;7.93;4.13;;;17.60;99.90;;;16.68;100.00;97705.66;4948274;28;20595;-77
2023/07/19 04:33:00;;;;;;;12.13;4.68;;;17.50;99.90;;;16.77;100.00;97694.59;4950026;28;20082;-77
2023/07/19 04:35:27;;;;;;;11.48;4.63;;;17.50;99.90;;;16.78;100.00;97698.03;4950248;28;20359;-76
2023/07/19 04:37:56;;;;;;;12.57;5.53;;;17.50;99.90;;;16.82;100.00;97704.78;4949647;28;21465;-76
2023/07/19 04:40:22;;;;;;;11.27;5.57;;;17.50;99.90;;;16.81;100.00;97713.59;4928782;28;20142;-77
2023/07/19 04:42:50;;;;;;;10.35;5.97;;;17.50;99.90;;;16.82;100.00;97716.13;4948807;28;20067;-76
2023/07/19 04:45:17;;;;;;;9.70;5.78;;;17.40;99.90;;;16.70;100.00;97722.97;4948760;28;20087;-76
2023/07/19 04:47:45;;;;;;;9.98;5.88;;;17.40;99.90;;;16.83;100.00;97723.06;4947928;28;20051;-77
2023/07/19 04:50:12;;;;;;;14.05;5.57;;;17.50;99.90;;;16.91;100.00;97723.38;4946149;28;20050;-76
2023/07/19 04:52:39;;;;;;;10.13;4.63;;;17.50;99.90;;;17.09;100.00;97723.94;4950742;28;20134;-77
2023/07/19 04:55:07;;;;;;;9.60;5.35;;;17.60;99.90;;;17.12;100.00;97723.72;4951510;28;20471;-77
2023/07/19 04:57:34;;;;;;;8.82;4.60;;;17.70;99.90;;;17.27;100.00;97716.63;4951378;28;20078;-77
2023/07/19 05:00:04;;;;;;;10.20;4.70;;;17.80;99.90;;;17.36;100.00;97712.53;4950866;28;20503;-76
2023/07/19 05:02:31;;;;;;;8.73;4.82;;;17.90;99.90;;;17.48;100.00;97714.31;4956386;28;20051;-77
2023/07/19 05:04:59;;;;;;;11.18;5.22;;;18.00;99.90;;;17.49;100.00;97705.50;4951934;28;20047;-76
2023/07/19 05:07:26;;;;;;;11.20;5.15;;;18.00;99.90;;;17.50;100.00;97707.19;4951381;28;20075;-77
2023/07/19 05:09:53;;;;;;;8.77;4.95;;;18.10;99.90;;;17.70;100.00;97703.19;4951066;28;20048;-77
2023/07/19 05:12:20;;;;;;;8.75;5.05;;;18.20;99.90;;;17.64;100.00;97693.09;4950294;28;20161;-77
2023/07/19 05:14:48;;;;;;;10.32;4.40;;;18.20;99.90;;;17.77;100.00;97693.09;4961112;28;20480;-76
2023/07/19 05:17:15;;;;;;;10.25;4.93;;;18.30;99.90;;;17.80;100.00;97692.88;4943436;28;20138;-76
2023/07/19 05:19:42;;;;;;;9.10;4.72;;;18.40;99.90;;;18.01;100.00;97685.28;4950592;28;20404;-77
2023/07/19 05:22:10;;;;;;;11.68;4.75;;;18.40;99.90;;;18.03;100.00;97680.78;4955494;28;20101;-77
2023/07/19 05:24:37;;;;;;;11.80;4.70;;;18.50;99.90;;;18.08;100.00;97675.19;4965828;28;20119;-76
2023/07/19 05:27:06;;;;;;;9.27;4.55;;;18.60;99.90;;;18.11;100.00;97673.19;4966579;28;20497;-77
2023/07/19 05:29:34;;;;;;;9.55;4.90;;;18.70;99.90;;;18.18;100.00;97673.59;4954205;28;20082;-76
2023/07/19 05:32:01;;;;;;;8.40;4.40;;;18.80;99.90;;;18.34;100.00;97663.66;4941795;28;20484;-76
2023/07/19 05:34:28;;;;;;;12.48;4.93;;;18.80;99.90;;;18.41;100.00;97671.94;4946905;28;20055;-76
2023/07/19 05:36:57;;;;;;;7.10;4.88;;;18.90;99.90;;;18.27;100.00;97670.31;4949035;28;20113;-77
2023/07/19 05:39:25;;;;;;;11.70;5.28;;;18.90;99.90;;;18.25;100.00;97669.56;4956393;28;20062;-76
2023/07/19 05:41:52;;;;;;;12.15;6.13;;;18.80;99.90;;;18.14;100.00;97670.34;4951407;28;20503;-77
2023/07/19 05:44:19;;;;;;;8.30;4.65;;;18.80;99.90;;;18.31;100.00;97679.63;4954697;28;20202;-77
2023/07/19 05:46:46;;;;;;;8.98;5.28;;;18.70;99.90;;;18.41;100.00;97665.84;4951913;28;20073;-77
2023/07/19 05:49:13;;;;;;;10.20;5.50;;;18.70;99.90;;;18.60;100.00;97653.00;4954342;28;20047;-77
2023/07/19 05:51:40;;;;;;;10.70;4.93;;;18.80;99.90;;;18.60;100.00;97651.22;4952594;28;20053;-77
2023/07/19 05:54:08;;;;;;;10.48;5.80;;;18.90;99.90;;;18.55;100.00;97648.09;4959763;28;20543;-77
2023/07/19 05:56:37;;;;;;;10.00;4.88;;;18.90;99.90;;;18.55;100.00;97649.88;4950180;28;20130;-77
2023/07/19 05:59:04;;;;;;;11.63;5.63;;;18.90;99.90;;;18.34;100.00;97653.13;4952374;28;20165;-76
2023/07/19 06:01:39;;;;;;;11.25;5.80;;;19.00;99.90;;;18.56;100.00;97649.75;4955300;28;20166;-75
2023/07/19 06:04:07;;;;;;;9.45;4.65;;;19.00;99.90;;;18.76;100.00;97645.66;4950766;28;20065;-77
2023/07/19 06:06:35;;;;;;;13.27;5.90;;;18.90;99.90;;;18.69;100.00;97639.19;4948985;28;20138;-77
2023/07/19 06:09:06;;;;;;;9.07;5.55;;;18.90;99.90;;;18.86;100.00;97631.84;4958531;28;20129;-76
2023/07/19 06:11:33;;;;;;;11.35;5.90;;;18.90;99.90;;;18.78;100.00;97630.63;4946436;28;20118;-77
2023/07/19 06:14:01;;;;;;;10.45;5.53;;;19.00;99.90;;;18.65;100.00;97634.25;4925054;29;20503;-76
2023/07/19 06:16:28;;;;;;;10.70;5.97;;;19.10;99.90;;;18.77;100.00;97643.88;4937188;28;20155;-77
2023/07/19 06:18:55;;;;;;;11.82;6.53;;;19.20;99.90;;;18.71;100.00;97644.31;4939740;28;20082;-75
2023/07/19 06:21:24;;;;;;;10.75;5.65;;;19.20;99.90;;;18.88;100.00;97645.72;4942296;28;20630;-77
2023/07/19 06:23:54;;;;;;;10.88;5.55;;;19.10;99.90;;;18.91;100.00;97630.56;4946581;28;20465;-77
2023/07/19 06:26:21;;;;;;;12.65;5.47;;;19.10;99.90;;;18.88;100.00;97630.75;4945029;28;20134;-77
2023/07/19 06:28:48;;;;;;;12.13;6.30;;;19.20;99.90;;;18.80;100.00;97627.91;4925764;29;20443;-77
2023/07/19 06:31:15;;;;;;;10.10;5.13;;;19.20;99.90;;;19.33;100.00;97630.00;4939148;28;20548;-77
2023/07/19 06:33:43;;;;;;;11.20;5.60;;;19.20;99.90;;;18.84;100.00;97617.97;4939611;28;20050;-77
2023/07/19 06:36:10;;;;;;;9.90;6.45;;;19.30;99.90;;;19.08;100.00;97633.69;4941196;28;20566;-77
2023/07/19 06:38:37;;;;;;;13.20;6.82;;;19.50;99.90;;;19.32;100.00;97631.81;4940991;28;20594;-76
2023/07/19 06:41:05;;;;;;;12.00;5.60;;;19.70;99.90;;;19.33;100.00;97622.94;4946305;28;20157;-77
2023/07/19 06:43:32;;;;;;;13.60;6.30;;;19.80;99.90;;;19.50;100.00;97618.16;4958211;28;20051;-77
2023/07/19 06:46:00;;;;;;;10.50;6.75;;;19.90;99.90;;;19.80;100.00;97601.78;4948597;28;20188;-76
2023/07/19 06:48:27;;;;;;;11.00;5.63;;;20.10;99.90;;;20.28;100.00;97582.97;4930626;28;20512;-75
2023/07/19 06:50:56;;;;;;;9.93;5.00;;;20.40;99.90;;;20.48;100.00;97562.84;4950539;28;20067;-78
2023/07/19 06:53:24;;;;;;;15.45;4.95;;;20.70;99.90;;;21.02;100.00;97545.16;4949013;28;20343;-77
2023/07/19 06:55:53;;;;;;;10.07;4.50;;;20.90;99.90;;;21.48;100.00;97528.00;4946768;28;20110;-77
2023/07/19 06:58:21;;;;;;;6.60;3.58;;;21.30;99.90;;;21.18;100.00;97503.28;4945836;28;20074;-78
2023/07/19 07:00:48;;;;;;;9.98;4.13;;;21.50;99.90;;;21.51;100.00;97488.97;4948904;28;20051;-76
2023/07/19 07:03:15;;;;;;;7.65;4.47;;;21.40;99.90;;;21.51;100.00;97494.25;4947870;28;20051;-78
2023/07/19 07:05:46;;;;;;;10.75;3.92;;;21.70;99.90;;;21.76;100.00;97483.28;4947686;28;20071;-76
2023/07/19 07:08:13;;;;;;;7.60;3.40;;;21.80;99.90;;;21.68;100.00;97479.53;4945837;28;20477;-77
2023/07/19 07:10:43;;;;;;;7.80;3.20;;;21.90;99.90;;;21.60;100.00;97476.75;4947907;28;20094;-77
2023/07/19 07:13:10;;;;;;;8.00;3.90;;;21.90;99.90;;;22.12;100.00;97479.09;4951580;28;20051;-77
2023/07/19 07:15:38;;;;;;;11.60;3.75;;;21.90;99.90;;;22.05;100.00;97478.84;4948455;28;20114;-78
2023/07/19 07:18:05;;;;;;;6.78;3.45;;;22.10;99.90;;;22.44;100.00;97478.84;4946823;28;20637;-76
2023/07/19 07:20:35;;;;;;;9.55;3.63;;;22.20;99.90;;;22.37;100.00;97477.72;4951501;28;20044;-77
2023/07/19 07:23:03;;;;;;;7.55;3.20;;;22.40;99.90;;;22.61;100.00;97481.72;4945733;28;20063;-78
2023/07/19 07:25:31;;;;;;;7.18;3.35;;;22.50;99.90;;;22.30;100.00;97471.34;4949289;28;20055;-76
2023/07/19 07:27:59;;;;;;;7.47;3.47;;;22.40;99.90;;;22.21;100.00;97473.00;4963372;28;20048;-77
2023/07/19 07:30:27;;;;;;;6.97;3.60;;;22.40;99.90;;;22.06;100.00;97469.13;4948628;28;20069;-76
2023/07/19 07:32:54;;;;;;;11.35;2.90;;;22.50;99.90;;;22.83;100.00;97465.50;4949905;28;20051;-77
2023/07/19 07:35:22;;;;;;;6.43;3.38;;;22.50;99.90;;;22.74;100.00;97467.22;4949220;28;20047;-78
2023/07/19 07:37:50;;;;;;;8.02;2.88;;;22.50;99.90;;;22.67;100.00;97473.19;4961443;28;20075;-77
2023/07/19 07:40:17;;;;;;;4.78;2.65;;;22.60;99.90;;;22.76;100.00;97469.69;4963367;28;20059;-77
2023/07/19 07:42:44;;;;;;;5.95;3.45;;;22.40;99.90;;;22.64;100.00;97468.22;4953174;28;20110;-76
2023/07/19 07:45:13;;;;;;;7.97;3.25;;;22.40;99.90;;;22.41;100.00;97473.81;4953855;28;20106;-78
2023/07/19 07:47:41;;;;;;;7.40;3.05;;;22.30;99.90;;;22.41;100.00;97467.72;4952790;28;20055;-76
2023/07/19 07:50:09;;;;;;;6.88;2.35;;;22.20;99.90;;;22.62;100.00;97464.88;4954894;28;20656;-78
2023/07/19 07:52:38;;;;;;;8.70;3.33;;;22.30;99.90;;;22.61;100.00;97460.56;4951109;28;20341;-77
2023/07/19 07:55:06;;;;;;;7.72;3.05;;;22.40;99.90;;;22.24;100.00;97448.97;4948346;28;20058;-78
2023/07/19 07:57:34;;;;;;;7.25;2.97;;;22.60;99.90;;;22.40;100.00;97450.16;4951432;28;20936;-78
2023/07/19 08:00:01;;;;;;;8.68;3.13;;;22.70;99.90;;;22.65;100.00;97438.09;4935927;28;20135;-78
2023/07/19 08:02:29;;;;;;;6.85;2.35;;;22.90;99.90;;;22.60;100.00;97441.19;4950892;28;20051;-77
2023/07/19 08:04:56;;;;;;;4.75;2.33;;;22.90;99.90;;;22.81;100.00;97435.72;4965493;28;20087;-78
2023/07/19 08:07:25;;;;;;;6.20;2.67;;;22.70;99.90;;;22.76;100.00;97432.66;4952356;28;20054;-78
2023/07/19 08:09:53;;;;;;;4.47;2.30;;;22.80;99.90;;;23.00;100.00;97432.16;4938988;28;20063;-78
2023/07/19 08:12:20;;;;;;;4.97;2.45;;;22.90;99.90;;;23.03;100.00;97429.22;4951662;28;20337;-78
2023/07/19 08:14:48;;;;;;;5.65;2.35;;;23.00;99.90;;;22.92;100.00;97421.44;4954533;28;20086;-78
2023/07/19 08:17:16;;;;;;;5.88;1.98;;;23.20;99.90;;;23.20;100.00;97424.97;4934886;28;20055;-77
2023/07/19 08:19:43;;;;;;;4.90;2.10;;;23.20;99.90;;;23.37;100.00;97418.84;4950476;28;20051;-78
2023/07/19 08:22:27;;;;;;;7.03;2.38;;;23.20;99.90;;;23.46;100.00;97413.63;4950217;28;20563;-76
2023/07/19 08:24:55;;;;;;;6.97;2.28;;;23.30;99.90;;;23.45;100.00;97412.81;4954338;28;20508;-78
2023/07/19 08:27:34;;;;;;;5.72;2.00;;;23.50;99.90;;;23.70;100.00;97408.56;4950567;28;20054;-78
2023/07/19 08:30:07;;;;;;;7.72;2.13;;;23.70;99.90;;;23.74;100.00;97407.31;4946013;28;20052;-77
2023/07/19 08:32:34;;;;;;;5.82;2.20;;;23.90;99.90;;;23.53;100.00;97401.44;4953268;28;20066;-78
2023/07/19 08:35:02;;;;;;;9.63;2.25;;;23.90;99.90;;;23.71;100.00;97396.97;4928419;28;20055;-77
2023/07/19 08:37:29;;;;;;;5.45;2.08;;;24.00;99.90;;;24.20;100.00;97396.56;4949492;28;20061;-77
2023/07/19 08:39:59;;;;;;;6.32;1.95;;;24.10;99.90;;;24.35;100.00;97397.66;4947699;28;20545;-77
2023/07/19 08:42:27;;;;;;;8.60;1.80;;;24.20;99.90;;;24.99;100.00;97386.72;4928288;28;20061;-78
2023/07/19 08:44:54;;;;;;;6.38;1.73;;;24.30;99.90;;;25.39;100.00;97375.41;4933160;28;20055;-77
2023/07/19 08:47:22;;;;;;;4.25;1.58;;;24.30;99.90;;;25.94;100.00;97371.28;4969187;28;20062;-75
2023/07/19 08:49:51;;;;;;;4.45;2.10;;;24.70;99.90;;;26.48;100.00;97362.72;4970815;28;20047;-76
2023/07/19 08:52:18;;;;;;;13.10;1.83;;;;;;;27.12;100.00;97365.31;4953425;28;20062;-76
2023/07/19 08:54:46;;;;;;;10.13;2.05;;;25.90;99.90;;;27.56;100.00;97359.41;4960939;28;20061;-76
2023/07/19 08:57:15;;;;;;;7.25;1.35;;;26.70;99.90;;;26.93;100.00;97361.22;4943386;28;20054;-75
2023/07/19 08:59:42;;;;;;;7.78;1.50;;;26.80;99.90;;;26.91;100.00;97360.56;4958483;28;20051;-76
2023/07/19 09:02:09;;;;;;;8.57;1.55;;;26.80;99.90;;;26.49;100.00;97361.72;4957295;28;20070;-77
2023/07/19 09:04:38;;;;;;;22.42;2.88;;;27.20;99.90;;;27.93;100.00;97355.13;4959038;28;20071;-76
2023/07/19 09:07:06;;;;;;;40.85;5.03;;;27.90;99.70;;;27.56;100.00;97356.72;4971945;28;20085;-77
2023/07/19 09:09:33;;;;;;;9.05;1.15;;;28.00;96.10;;;26.89;100.00;97365.25;4959045;28;20456;-76
2023/07/19 09:12:00;;;;;;;5.32;1.20;;;27.60;94.50;;;25.97;100.00;97364.81;4957492;28;20063;-77
2023/07/19 09:14:35;;;;;;;11.55;1.30;;;27.10;95.00;;;26.45;100.00;97369.19;4940565;28;20264;-76
2023/07/19 09:17:03;;;;;;;7.90;1.02;;;26.70;95.10;;;26.24;100.00;97380.41;4952409;28;20054;-78
2023/07/19 09:19:31;;;;;;;4.72;1.25;;;26.60;95.80;;;26.55;100.00;97366.41;4955252;28;20546;-76
2023/07/19 09:22:05;;;;;;;6.43;0.93;;;26.50;96.50;;;26.90;100.00;97369.59;4957040;28;20070;-77
2023/07/19 09:24:35;;;;;;;5.35;1.20;;;;;;;27.21;100.00;97368.78;4935468;28;20164;-77
2023/07/19 09:27:03;;;;;;;8.27;0.93;;;27.20;95.60;;;27.55;100.00;97360.38;4948814;28;20510;-77
2023/07/19 09:29:31;;;;;;;3.80;0.98;;;28.00;96.30;;;26.55;100.00;97361.06;4955175;28;20971;-77
2023/07/19 09:32:01;;;;;;;4.20;1.17;;;27.80;96.30;;;26.91;100.00;97380.06;4946768;28;20141;-76
2023/07/19 09:34:36;;;;;;;5.88;1.40;;;27.70;95.50;;;26.10;100.00;97372.28;4959254;28;20071;-76
2023/07/19 09:37:06;;;;;;;6.50;1.30;;;27.10;95.20;;;26.69;100.00;97363.00;4954798;28;20146;-77
2023/07/19 09:39:37;;;;;;;9.75;1.20;;;27.40;95.40;;;26.47;100.00;97359.22;4957025;28;20133;-76
2023/07/19 09:42:04;;;;;;;4.05;1.10;;;27.30;94.90;;;27.01;100.00;97366.53;4960811;28;20079;-76
2023/07/19 09:44:33;;;;;;;7.32;1.23;;;27.00;95.00;;;26.90;100.00;97367.75;4946989;28;20054;-76
2023/07/19 09:47:01;;;;;;;7.22;1.02;;;26.90;94.90;;;26.96;100.00;97360.91;4939826;28;20146;-75
2023/07/19 09:49:42;;;;;;;4.75;1.00;;;26.70;95.00;;;27.05;100.00;97356.34;4936663;28;20567;-77
2023/07/19 09:52:17;;;;;;;5.43;1.15;;;26.50;95.20;;;26.81;100.00;97367.97;4940024;28;20051;-77
2023/07/19 09:54:45;;;;;;;8.93;1.70;;;26.50;95.40;;;26.45;100.00;97360.41;4927919;28;20051;-76
2023/07/19 09:57:12;;;;;;;9.40;1.73;;;26.60;95.50;;;25.99;100.00;97365.47;4926323;29;20089;-76
2023/07/19 09:59:47;;;;;;;5.22;1.90;;;26.70;96.00;;;26.08;100.00;97353.81;4941678;28;20106;-74
2023/07/19 10:02:14;;;;;;;12.40;1.90;;;26.90;95.50;;;25.90;100.00;97358.50;4958321;28;20055;-74
2023/07/19 10:04:44;;;;;;;5.90;1.50;;;26.50;95.70;;;26.16;100.00;97361.81;4944239;28;20047;-77
2023/07/19 10:07:29;;;;;;;4.28;1.55;;;26.70;96.00;;;26.17;100.00;97352.81;4955863;28;20330;-77
2023/07/19 10:10:16;;;;;;;13.27;1.92;;;26.40;97.10;;;25.85;100.00;97357.13;4944154;28;20102;-76
2023/07/19 10:12:48;;;;;;;8.20;1.52;;;26.40;97.40;;;26.15;100.00;97354.00;4934968;28;20419;-76
2023/07/19 10:15:18;;;;;;;4.65;1.58;;;26.70;97.20;;;26.05;100.00;97349.69;4940813;28;20478;-75